Guilford, Kansas
Current Conditions -  °F | °C
As of 11:52 PM on Tuesday 25 Nov 2014 (Local Time) from KCNU Reporting Station
Overcast Overcast  
Wind Chill:   Ceiling: 12000
Heat Index:   Visibility: 10mi
Dew Point: -4°   Wind: 12mph
Humidity: 57%   Direction: 170°S
Pressure: 30.01"   Gusts: NA
Location:  37.5152°N, 95.6341°W
Report Text: KCNU 260552Z AUTO 17010KT 10SM OVC120 04/M04 A3001 RMK AO2 SLP164 T00391039 10039 20006 400831056 58020
Loading
Personal Weather Stations






























Interactive Weather Map New forecast layout! Learn more

10-Day Weather Forecast

Advertisements
Track Severe Weather on mobile